createdAt,value
2023-09-16T00:01:52.240Z,15.32
2023-09-16T00:05:54.967Z,15.34
2023-09-16T00:09:58.129Z,15.37
2023-09-16T00:14:00.922Z,15.39
2023-09-16T00:18:05.601Z,15.43
2023-09-16T00:22:11.362Z,15.44
2023-09-16T00:26:14.838Z,15.43
2023-09-16T00:30:21.817Z,15.43
2023-09-16T00:34:25.946Z,15.40
2023-09-16T00:38:28.653Z,15.35
2023-09-16T00:42:31.645Z,15.32
2023-09-16T00:46:34.417Z,15.24
2023-09-16T00:50:38.652Z,15.19
2023-09-16T00:54:41.550Z,15.15
2023-09-16T00:58:44.466Z,15.11
2023-09-16T01:02:48.253Z,15.07
2023-09-16T01:06:52.535Z,15.03
2023-09-16T01:10:55.211Z,15.00
2023-09-16T01:14:58.705Z,14.97
2023-09-16T01:19:13.334Z,14.90
2023-09-16T01:23:20.440Z,14.85
2023-09-16T01:27:24.465Z,14.82
2023-09-16T01:31:27.501Z,14.81
2023-09-16T01:35:36.740Z,14.78
2023-09-16T01:39:41.743Z,14.72
2023-09-16T01:43:46.152Z,14.68
2023-09-16T01:47:51.239Z,14.64
2023-09-16T01:51:54.263Z,14.62
2023-09-16T01:55:57.111Z,14.58
2023-09-16T02:00:01.543Z,14.54
2023-09-16T02:04:05.554Z,14.50
2023-09-16T02:08:09.158Z,14.46
2023-09-16T02:12:11.923Z,14.44
2023-09-16T02:16:17.234Z,14.40
2023-09-16T02:20:20.436Z,14.38
2023-09-16T02:24:23.377Z,14.38
2023-09-16T02:28:26.362Z,14.42
2023-09-16T02:32:31.431Z,14.44
2023-09-16T02:36:34.242Z,14.52
2023-09-16T02:40:40.657Z,14.60
2023-09-16T02:44:43.944Z,14.66
2023-09-16T02:48:48.313Z,14.72
2023-09-16T02:52:51.576Z,14.79
2023-09-16T02:56:54.325Z,14.84
2023-09-16T03:00:57.210Z,14.86
2023-09-16T03:05:01.816Z,14.91
2023-09-16T03:09:06.445Z,14.94
2023-09-16T03:13:09.637Z,14.99
2023-09-16T03:17:12.380Z,15.03
2023-09-16T03:21:17.772Z,15.05
2023-09-16T03:25:20.850Z,15.00
2023-09-16T03:29:23.638Z,14.99
2023-09-16T03:33:26.378Z,14.99
2023-09-16T03:37:30.486Z,15.02
2023-09-16T03:41:38.749Z,15.01
2023-09-16T03:45:41.881Z,15.02
2023-09-16T03:49:44.751Z,15.01
2023-09-16T03:53:49.152Z,14.98
2023-09-16T03:57:52.042Z,14.97
2023-09-16T04:01:54.851Z,14.96
2023-09-16T04:05:59.528Z,14.96
2023-09-16T04:10:04.682Z,14.96
2023-09-16T04:14:07.458Z,14.98
2023-09-16T04:18:10.175Z,14.98
2023-09-16T04:22:12.961Z,14.95
2023-09-16T04:26:17.220Z,14.94
2023-09-16T04:30:22.930Z,14.90
2023-09-16T04:34:25.857Z,14.86
2023-09-16T04:38:29.718Z,14.87
2023-09-16T04:42:35.628Z,14.85
2023-09-16T04:46:38.382Z,14.84
2023-09-16T04:50:46.659Z,14.82
2023-09-16T04:54:49.923Z,14.83
2023-09-16T04:58:54.307Z,14.82
2023-09-16T05:02:58.988Z,14.85
2023-09-16T05:07:01.717Z,14.85
2023-09-16T05:11:05.048Z,14.82
2023-09-16T05:15:19.455Z,14.81
2023-09-16T05:19:22.594Z,14.78
2023-09-16T05:23:26.283Z,14.75
2023-09-16T05:27:29.930Z,14.73
2023-09-16T05:31:33.998Z,14.72
2023-09-16T05:35:36.933Z,14.72
2023-09-16T05:39:39.990Z,14.74
2023-09-16T05:43:43.313Z,14.75
2023-09-16T05:47:49.576Z,14.80
2023-09-16T05:51:53.952Z,14.86
2023-09-16T05:55:56.978Z,14.90
2023-09-16T05:59:59.902Z,14.94
2023-09-16T06:04:04.783Z,15.00
2023-09-16T06:08:08.063Z,15.01
2023-09-16T06:12:11.474Z,15.08
2023-09-16T06:16:14.530Z,15.16
2023-09-16T06:20:18.982Z,15.24
2023-09-16T06:24:22.660Z,15.33
2023-09-16T06:28:26.340Z,15.44
2023-09-16T06:32:29.168Z,15.54
2023-09-16T06:36:34.196Z,15.63
2023-09-16T06:40:39.268Z,15.71
2023-09-16T06:44:43.022Z,15.80
2023-09-16T06:48:46.455Z,15.90
2023-09-16T06:52:50.766Z,16.07
2023-09-16T06:56:53.426Z,16.27
2023-09-16T07:00:56.281Z,16.51
2023-09-16T07:04:59.058Z,16.76
2023-09-16T07:09:03.126Z,16.98
2023-09-16T07:13:05.956Z,17.21
2023-09-16T07:17:08.987Z,17.43
2023-09-16T07:21:11.773Z,17.65
2023-09-16T07:25:15.923Z,17.84
2023-09-16T07:29:19.601Z,18.02
2023-09-16T07:33:23.580Z,18.16
2023-09-16T07:37:26.336Z,18.30
2023-09-16T07:41:30.413Z,18.46
2023-09-16T07:45:33.148Z,18.69
2023-09-16T07:49:36.452Z,18.93
2023-09-16T07:53:39.203Z,19.23
2023-09-16T07:57:43.378Z,19.58
2023-09-16T08:01:46.200Z,19.91
2023-09-16T08:05:50.023Z,20.20
2023-09-16T08:09:52.888Z,20.43
2023-09-16T08:13:57.128Z,20.69
2023-09-16T08:17:59.881Z,20.98
2023-09-16T08:22:02.862Z,21.28
2023-09-16T08:26:05.749Z,21.52
2023-09-16T08:30:10.823Z,21.69
2023-09-16T08:34:13.590Z,21.86
2023-09-16T08:38:16.340Z,22.02
2023-09-16T08:42:26.298Z,22.16
2023-09-16T08:46:32.234Z,22.27
2023-09-16T08:50:35.244Z,22.39
2023-09-16T08:54:40.231Z,22.46
2023-09-16T08:58:45.105Z,22.53
2023-09-16T09:02:50.941Z,22.78
2023-09-16T09:06:55.447Z,23.00
2023-09-16T09:10:59.146Z,23.20
2023-09-16T09:15:05.467Z,23.39
2023-09-16T09:19:11.303Z,23.66
2023-09-16T09:23:15.229Z,23.89
2023-09-16T09:27:18.007Z,24.09
2023-09-16T09:31:21.695Z,24.26
2023-09-16T09:35:26.545Z,24.37
2023-09-16T09:39:29.358Z,24.56
2023-09-16T09:43:32.679Z,24.82
2023-09-16T09:47:35.723Z,25.25
2023-09-16T09:51:40.185Z,25.54
2023-09-16T09:55:43.072Z,25.65
2023-09-16T09:59:47.038Z,25.59
2023-09-16T10:03:50.140Z,25.65
2023-09-16T10:07:55.387Z,25.65
2023-09-16T10:11:58.531Z,25.68
2023-09-16T10:16:02.505Z,25.67
2023-09-16T10:20:06.143Z,25.65
2023-09-16T10:24:10.855Z,25.59
2023-09-16T10:28:13.885Z,25.65
2023-09-16T10:32:20.476Z,26.06
2023-09-16T10:36:24.063Z,26.54
2023-09-16T10:40:28.594Z,26.91
2023-09-16T10:44:31.881Z,27.05
2023-09-16T10:48:34.736Z,27.27
2023-09-16T10:52:42.614Z,27.57
2023-09-16T10:56:47.031Z,27.78
2023-09-16T11:00:54.882Z,28.05
2023-09-16T11:04:58.166Z,28.15
2023-09-16T11:09:01.794Z,28.29
2023-09-16T11:13:07.213Z,28.58
2023-09-16T11:17:14.877Z,28.73
2023-09-16T11:21:18.964Z,28.84
2023-09-16T11:25:21.878Z,28.69
2023-09-16T11:29:29.347Z,28.41
2023-09-16T11:33:34.606Z,28.27
2023-09-16T11:37:37.472Z,28.55
2023-09-16T11:41:40.221Z,28.89
2023-09-16T11:45:44.563Z,28.76
2023-09-16T11:49:49.197Z,28.45
2023-09-16T11:53:52.987Z,28.33
2023-09-16T11:57:56.023Z,28.49
2023-09-16T12:02:01.094Z,28.57
2023-09-16T12:06:04.829Z,28.51
2023-09-16T12:10:10.169Z,28.33
2023-09-16T12:14:13.545Z,28.10
2023-09-16T12:18:17.720Z,27.92
2023-09-16T12:22:20.931Z,27.97
2023-09-16T12:26:24.112Z,28.25
2023-09-16T12:30:26.903Z,28.51
2023-09-16T12:34:31.277Z,28.64
2023-09-16T12:38:35.575Z,28.64
2023-09-16T12:42:38.773Z,28.79
2023-09-16T12:46:41.891Z,28.90
2023-09-16T12:50:47.560Z,28.77
2023-09-16T12:54:50.535Z,28.65
2023-09-16T12:58:55.181Z,28.69
2023-09-16T13:03:01.071Z,28.76
2023-09-16T13:07:06.021Z,28.54
2023-09-16T13:11:09.205Z,28.69
2023-09-16T13:15:16.064Z,28.43
2023-09-16T13:19:22.356Z,28.21
2023-09-16T13:23:27.068Z,28.18
2023-09-16T13:27:29.833Z,28.43
2023-09-16T13:31:32.867Z,28.66
2023-09-16T13:35:37.257Z,28.84
2023-09-16T13:39:45.794Z,28.97
2023-09-16T13:43:48.757Z,28.93
2023-09-16T13:48:11.717Z,28.91
2023-09-16T13:52:14.548Z,28.94
2023-09-16T13:56:20.505Z,28.98
2023-09-16T14:00:23.388Z,29.08
2023-09-16T14:04:26.337Z,29.15
2023-09-16T14:08:29.181Z,29.23
2023-09-16T14:12:33.551Z,29.22
2023-09-16T14:16:39.195Z,29.29
2023-09-16T14:20:43.344Z,29.26
2023-09-16T14:24:46.087Z,29.15
2023-09-16T14:28:50.441Z,29.01
2023-09-16T14:32:53.449Z,28.92
2023-09-16T14:36:56.224Z,28.93
2023-09-16T14:41:05.621Z,28.95
2023-09-16T14:45:10.003Z,28.80
2023-09-16T14:49:12.821Z,28.71
2023-09-16T14:53:15.572Z,28.47
2023-09-16T14:57:18.684Z,28.38
2023-09-16T15:01:22.840Z,28.25
2023-09-16T15:05:25.851Z,28.07
2023-09-16T15:09:29.127Z,27.94
2023-09-16T15:13:31.942Z,27.72
2023-09-16T15:17:36.000Z,27.61
2023-09-16T15:21:38.781Z,27.51
2023-09-16T15:25:41.580Z,27.38
2023-09-16T15:29:45.244Z,27.31
2023-09-16T15:33:49.894Z,27.22
2023-09-16T15:37:53.373Z,27.17
2023-09-16T15:41:56.149Z,27.16
2023-09-16T15:46:01.119Z,27.11
2023-09-16T15:50:05.526Z,27.03
2023-09-16T15:54:08.387Z,26.97
2023-09-16T15:58:13.565Z,26.91
2023-09-16T16:02:16.574Z,26.75
2023-09-16T16:06:22.771Z,26.65
2023-09-16T16:10:26.400Z,26.54
2023-09-16T16:14:29.238Z,26.46
2023-09-16T16:18:32.215Z,26.39
2023-09-16T16:22:36.497Z,26.26
2023-09-16T16:26:39.454Z,26.16
2023-09-16T16:30:42.298Z,26.09
2023-09-16T16:34:45.128Z,26.07
2023-09-16T16:38:49.278Z,26.00
2023-09-16T16:42:52.037Z,25.89
2023-09-16T16:46:59.546Z,25.67
2023-09-16T16:51:05.714Z,25.44
2023-09-16T16:55:10.607Z,25.26
2023-09-16T16:59:13.408Z,25.09
2023-09-16T17:03:16.220Z,24.95
2023-09-16T17:07:19.202Z,24.81
2023-09-16T17:11:23.339Z,24.61
2023-09-16T17:15:26.214Z,24.45
2023-09-16T17:19:29.895Z,24.33
2023-09-16T17:23:32.649Z,24.19
2023-09-16T17:27:39.726Z,24.10
2023-09-16T17:31:43.657Z,24.00
2023-09-16T17:35:46.698Z,23.87
2023-09-16T17:39:49.503Z,23.72
2023-09-16T17:43:54.334Z,23.61
2023-09-16T17:47:57.069Z,23.51
2023-09-16T17:52:00.070Z,23.39
2023-09-16T17:56:03.896Z,23.27
2023-09-16T18:00:10.757Z,23.16
2023-09-16T18:04:21.678Z,23.05
2023-09-16T18:08:25.223Z,22.93
2023-09-16T18:12:29.271Z,22.83
2023-09-16T18:16:33.581Z,22.73
2023-09-16T18:20:38.393Z,22.60
2023-09-16T18:24:41.325Z,22.50
2023-09-16T18:28:44.085Z,22.42
2023-09-16T18:32:48.290Z,22.33
2023-09-16T18:36:51.091Z,22.24
2023-09-16T18:40:54.430Z,22.17
2023-09-16T18:44:57.588Z,22.10
2023-09-16T18:49:02.010Z,22.04
2023-09-16T18:53:05.306Z,21.98
2023-09-16T18:57:09.234Z,21.91
2023-09-16T19:01:12.169Z,21.82
2023-09-16T19:05:16.380Z,21.76
2023-09-16T19:09:20.235Z,21.69
2023-09-16T19:13:23.482Z,21.62
2023-09-16T19:17:26.360Z,21.55
2023-09-16T19:21:30.531Z,21.50
2023-09-16T19:25:34.262Z,21.47
2023-09-16T19:29:37.268Z,21.43
2023-09-16T19:33:40.890Z,21.38
2023-09-16T19:37:45.023Z,21.35
2023-09-16T19:41:47.818Z,21.30
2023-09-16T19:45:50.572Z,21.26
2023-09-16T19:49:53.846Z,21.20
2023-09-16T19:53:58.424Z,21.16
2023-09-16T19:58:01.184Z,21.13
2023-09-16T20:02:04.773Z,21.10
2023-09-16T20:06:08.500Z,21.04
2023-09-16T20:10:12.966Z,20.95
2023-09-16T20:14:16.147Z,20.90
2023-09-16T20:18:19.060Z,20.88
2023-09-16T20:22:22.132Z,20.84
2023-09-16T20:26:26.732Z,20.83
2023-09-16T20:30:29.731Z,20.72
2023-09-16T20:34:33.156Z,20.67
2023-09-16T20:38:35.941Z,20.64
2023-09-16T20:42:40.081Z,20.64
2023-09-16T20:46:43.232Z,20.57
2023-09-16T20:50:46.123Z,20.58
2023-09-16T20:54:49.118Z,20.57
2023-09-16T20:58:53.557Z,20.54
2023-09-16T21:02:56.406Z,20.54
2023-09-16T21:06:59.348Z,20.49
2023-09-16T21:11:02.180Z,20.47
2023-09-16T21:15:07.644Z,20.45
2023-09-16T21:19:10.488Z,20.43
2023-09-16T21:23:13.950Z,20.40
2023-09-16T21:27:16.661Z,20.35
2023-09-16T21:31:20.951Z,20.32
2023-09-16T21:35:23.866Z,20.28
2023-09-16T21:39:26.690Z,20.22
2023-09-16T21:43:29.549Z,20.16
2023-09-16T21:47:33.858Z,20.12
2023-09-16T21:51:36.683Z,20.07
2023-09-16T21:55:40.397Z,20.03
2023-09-16T21:59:44.272Z,19.99
2023-09-16T22:03:48.549Z,19.91
2023-09-16T22:07:51.634Z,19.87
2023-09-16T22:11:54.426Z,19.86
2023-09-16T22:15:58.215Z,19.80
2023-09-16T22:20:04.539Z,19.79
2023-09-16T22:24:07.860Z,19.77
2023-09-16T22:28:10.728Z,19.70
2023-09-16T22:32:13.535Z,19.67
2023-09-16T22:36:17.862Z,19.68
2023-09-16T22:40:20.875Z,19.61
2023-09-16T22:44:23.629Z,19.57
2023-09-16T22:48:26.420Z,19.57
2023-09-16T22:52:32.634Z,19.53
2023-09-16T22:56:36.032Z,19.49
2023-09-16T23:00:38.982Z,19.49
2023-09-16T23:04:41.809Z,19.48
2023-09-16T23:08:45.955Z,19.48
2023-09-16T23:12:48.855Z,19.45
2023-09-16T23:16:51.713Z,19.42
2023-09-16T23:20:58.087Z,19.35
2023-09-16T23:25:02.200Z,19.35
2023-09-16T23:29:04.965Z,19.34
2023-09-16T23:33:07.776Z,19.30
2023-09-16T23:37:10.658Z,19.28
2023-09-16T23:41:15.831Z,19.24
2023-09-16T23:45:18.661Z,19.20
2023-09-16T23:49:21.422Z,19.19
2023-09-16T23:53:24.215Z,19.17
2023-09-16T23:57:28.315Z,19.13
